Main page
METAR-TAF:

METAR-TAF

Airports :

Shawbury, England

RAF Shawbury

latitude: 52-48N, longitude: 002-40W, elevation: 76 m

Current weather observation

The report was made 26 minutes ago, at 06:50 UTC
Wind 3 kt from the East/Northeast
Temperature 16°C
Humidity 72%
Pressure 1019 hPa
Visibility 10 km or more
no clouds below 1500 m and no cumulonimbus

METAR: EGOS 260650Z 07003KT CAVOK 16/11 Q1019 BLU NOSIG

Time: 08:16 (07:16 UTC)

Forecast

The report was made 1 hour and 30 minutes ago, at 05:46 UTC
Forecast valid from 26 at 06 UTC to 26 at 15 UTC
Wind 8 kt from the Southeast
Visibility 10 km or more
Few clouds at a height of 4000 ft
Temporary
from 26 at 08 UTC to 26 at 15 UTC
Wind 14 kt from the South/Southeast with gusts up to 22 kt

TAF: EGOS 260546Z 2606/2615 14008KT 9999 FEW040 TEMPO 2608/2615 15014G22KT

Weather observations and forecasts of more than 4000 airports (METAR and TAF reports).

The available stations are represented by yellow and red dots on the map.

Hover mouse over dot to see the name of the station.

Then click to see weather observations and forecasts.

To change the map : click on the green buttons with a black cross to zoom in, on the green button with a dash to zoom out, or on the green arrows for adjacent maps.


METAR-TAF: